Time;durP1;ratioP1;P1;durP2;ratioP2;P2;SDS_P1;SDS_P2;PMS_P1;PMS_P2;Temp;Humidity;BMP_temperature;BMP_pressure;BME280_temperature;BME280_humidity;BME280_pressure;Samples;Min_cycle;Max_cycle;Signal;HPM_P1;HPM_P2
2021/10/18 00:01:15;;;;;;;16.00;8.35;;;;;;;7.88;75.00;100235.00;5136767;27;20070;-63
2021/10/18 00:03:48;;;;;;;16.38;8.13;;;;;;;7.93;75.04;100251.19;5136066;27;20400;-64
2021/10/18 00:06:17;;;;;;;16.85;8.55;;;;;;;7.84;75.28;100248.47;5136629;27;20047;-63
2021/10/18 00:08:51;;;;;;;17.85;8.10;;;;;;;7.81;75.25;100245.88;5136509;27;20130;-63
2021/10/18 00:11:23;;;;;;;17.50;9.77;;;;;;;7.87;75.41;100238.34;5136548;27;20043;-63
2021/10/18 00:14:09;;;;;;;17.83;9.48;;;;;;;7.87;75.30;100234.97;5135628;27;20074;-63
2021/10/18 00:16:43;;;;;;;18.65;10.50;;;;;;;7.94;74.63;100255.44;5136434;27;20051;-63
2021/10/18 00:19:16;;;;;;;18.08;10.52;;;;;;;7.97;75.19;100247.88;5136393;27;20039;-62
2021/10/18 00:21:49;;;;;;;18.42;10.48;;;;;;;8.06;74.89;100245.50;5136330;27;20126;-63
2021/10/18 00:24:21;;;;;;;18.40;10.10;;;;;;;8.13;74.51;100247.31;5136331;27;20043;-63
2021/10/18 00:26:53;;;;;;;18.83;10.00;;;;;;;8.22;74.50;100250.84;5136600;27;20123;-63
2021/10/18 00:29:26;;;;;;;18.50;10.20;;;;;;;8.31;74.47;100243.41;5136026;27;20068;-63
2021/10/18 00:32:00;;;;;;;21.00;9.73;;;;;;;8.31;73.97;100235.78;5136151;27;20055;-63
2021/10/18 00:34:33;;;;;;;22.10;9.90;;;;;;;8.24;73.71;100236.47;5136408;27;20043;-63
2021/10/18 00:37:05;;;;;;;17.05;9.27;;;;;;;8.25;73.92;100240.75;5136043;27;20047;-63
2021/10/18 00:39:38;;;;;;;18.10;9.32;;;;;;;8.30;73.94;100241.72;5135957;27;20096;-63
2021/10/18 00:42:10;;;;;;;16.83;9.85;;;;;;;8.30;73.79;100245.09;5135958;27;20050;-63
2021/10/18 00:44:40;;;;;;;20.23;9.60;;;;;;;8.29;74.24;100242.53;5135874;27;20053;-63
2021/10/18 00:47:16;;;;;;;20.70;10.55;;;;;;;8.40;73.60;100243.56;4766652;22;22198;-61
2021/10/18 00:49:49;;;;;;;17.00;9.55;;;;;;;8.46;73.70;100244.56;5073724;28;20523;-61
2021/10/18 00:52:22;;;;;;;18.25;9.98;;;;;;;8.52;73.32;100233.59;5074556;28;20053;-61
2021/10/18 00:54:56;;;;;;;19.35;9.98;;;;;;;8.56;72.52;100243.00;5074799;28;20397;-60
2021/10/18 00:57:25;;;;;;;18.90;9.55;;;;;;;8.51;72.58;100239.53;5074786;28;20545;-61
2021/10/18 00:59:59;;;;;;;16.80;9.38;;;;;;;8.50;72.85;100245.44;5074343;28;20110;-61
2021/10/18 01:02:30;;;;;;;21.80;9.93;;;;;;;8.46;73.00;100246.22;5074624;28;20397;-61
2021/10/18 01:05:05;;;;;;;16.25;9.48;;;;;;;8.35;73.78;100242.66;5074272;28;20068;-61
2021/10/18 01:07:35;;;;;;;20.52;9.98;;;;;;;8.43;73.37;100241.09;5074599;28;20117;-61
2021/10/18 01:10:06;;;;;;;19.60;9.90;;;;;;;8.52;73.03;100243.78;5074098;28;20486;-61
2021/10/18 01:12:42;;;;;;;17.67;9.52;;;;;;;8.61;73.39;100236.31;5074177;28;20055;-61
2021/10/18 01:15:14;;;;;;;19.90;9.43;;;;;;;8.67;73.30;100236.41;5074030;28;20140;-61
2021/10/18 01:17:48;;;;;;;17.65;9.18;;;;;;;8.67;72.88;100236.41;5074069;28;20044;-61
2021/10/18 01:20:30;;;;;;;18.63;9.75;;;;;;;8.61;72.35;100236.31;5074019;28;20083;-61
2021/10/18 01:23:03;;;;;;;18.08;9.60;;;;;;;8.57;73.05;100237.06;5074023;28;20048;-61
2021/10/18 01:25:35;;;;;;;16.10;9.35;;;;;;;8.70;72.91;100241.53;5073855;28;20048;-61
2021/10/18 01:28:08;;;;;;;16.60;9.80;;;;;;;8.63;73.04;100234.66;5073931;28;20107;-61
2021/10/18 01:30:41;;;;;;;17.45;9.80;;;;;;;8.63;72.71;100234.66;5073763;28;20083;-61
2021/10/18 01:33:13;;;;;;;16.42;8.77;;;;;;;8.62;73.15;100238.00;5073819;28;20048;-61
2021/10/18 01:35:46;;;;;;;16.95;9.90;;;;;;;8.62;72.80;100222.75;5073746;28;20132;-61
2021/10/18 01:38:15;;;;;;;17.80;9.82;;;;;;;8.67;72.59;100231.31;5074113;28;20495;-61
2021/10/18 01:40:48;;;;;;;17.77;9.75;;;;;;;8.66;72.70;100229.63;5073719;28;20135;-61
2021/10/18 01:43:20;;;;;;;20.98;10.02;;;;;;;8.68;72.93;100233.03;5074031;28;20067;-61
2021/10/18 01:45:53;;;;;;;20.75;9.88;;;;;;;8.74;72.51;100230.56;5073664;28;20048;-61
2021/10/18 01:48:25;;;;;;;20.10;9.63;;;;;;;8.67;72.59;100232.16;5072701;28;20056;-61
2021/10/18 01:51:02;;;;;;;16.15;8.80;;;;;;;8.67;72.82;100227.09;5073529;28;20397;-61
2021/10/18 01:53:31;;;;;;;18.55;9.45;;;;;;;8.61;73.13;100231.22;5073910;28;20075;-61
2021/10/18 01:56:04;;;;;;;12.35;7.45;;;;;;;8.60;72.81;100227.81;5073858;28;20489;-61
2021/10/18 01:58:37;;;;;;;16.17;8.70;;;;;;;8.55;72.42;100220.94;5073516;28;20041;-61
2021/10/18 02:01:09;;;;;;;14.80;8.35;;;;;;;8.61;72.56;100236.31;5073621;28;20071;-61
2021/10/18 02:03:41;;;;;;;17.27;8.95;;;;;;;8.60;73.26;100232.03;5073431;28;20517;-61
2021/10/18 02:06:19;;;;;;;15.02;8.57;;;;;;;8.57;73.21;100234.53;5073760;28;20482;-61
2021/10/18 02:08:52;;;;;;;15.63;8.15;;;;;;;8.63;72.98;100229.56;5073462;28;20044;-61
2021/10/18 02:11:24;;;;;;;19.50;9.82;;;;;;;8.57;73.46;100220.13;5073589;28;20045;-61
2021/10/18 02:13:57;;;;;;;17.13;8.82;;;;;;;8.41;73.38;100207.16;5073406;28;20140;-61
2021/10/18 02:16:29;;;;;;;17.33;9.32;;;;;;;8.30;73.66;100201.03;5073367;28;20045;-61
2021/10/18 02:19:01;;;;;;;18.10;9.00;;;;;;;8.43;73.65;100216.50;5073327;28;20141;-61
2021/10/18 02:21:35;;;;;;;20.92;10.38;;;;;;;8.36;73.55;100213.84;5073611;28;20056;-61
2021/10/18 02:24:07;;;;;;;17.20;9.38;;;;;;;8.45;73.82;100214.84;5073308;28;20055;-61
2021/10/18 02:26:40;;;;;;;16.58;8.90;;;;;;;8.47;73.41;100218.25;5073282;28;20058;-61
2021/10/18 02:29:12;;;;;;;17.20;9.48;;;;;;;8.43;73.65;100216.50;5073534;28;20044;-61
2021/10/18 02:31:44;;;;;;;17.30;8.82;;;;;;;8.51;73.68;100214.97;5073419;28;20094;-61
2021/10/18 02:34:14;;;;;;;16.08;9.13;;;;;;;8.40;73.12;100200.34;5073472;28;20186;-61
2021/10/18 02:36:48;;;;;;;19.55;9.38;;;;;;;8.42;73.76;100213.97;5073384;28;20491;-61
2021/10/18 02:39:20;;;;;;;22.58;9.13;;;;;;;8.20;73.51;100211.84;5074042;28;20423;-61
2021/10/18 02:41:53;;;;;;;15.52;8.80;;;;;;;8.20;74.23;100206.75;5073436;28;20044;-61
2021/10/18 02:44:25;;;;;;;18.08;9.80;;;;;;;8.24;74.06;100198.34;5073260;28;20382;-61
2021/10/18 02:46:57;;;;;;;17.05;9.25;;;;;;;8.25;74.10;100192.44;5073130;28;20048;-61
2021/10/18 02:49:30;;;;;;;20.45;9.02;;;;;;;8.33;74.49;100203.59;5033131;28;20041;-61
2021/10/18 02:52:05;;;;;;;19.77;9.75;;;;;;;8.25;74.35;100200.06;5033319;28;20041;-61
2021/10/18 02:54:35;;;;;;;17.85;9.20;;;;;;;8.25;74.69;100205.16;5033032;28;20518;-61
2021/10/18 02:57:23;;;;;;;17.05;9.23;;;;;;;8.28;75.22;100205.25;4632056;23;21995;-61
2021/10/18 02:59:52;;;;;;;18.80;8.52;;;;;;;8.29;75.43;100217.13;5093126;28;20074;-61
2021/10/18 03:02:21;;;;;;;14.77;7.10;;;;;;;8.30;75.05;100213.75;5093110;28;20040;-60
2021/10/18 03:04:51;;;;;;;16.98;8.90;;;;;;;8.31;74.40;100215.44;5093334;28;20054;-61
2021/10/18 03:07:22;;;;;;;17.23;8.68;;;;;;;8.33;74.63;100208.69;5093073;28;20134;-61
2021/10/18 03:09:54;;;;;;;16.48;8.65;;;;;;;8.30;73.98;100218.84;5093326;28;20559;-61
2021/10/18 03:12:24;;;;;;;15.68;9.00;;;;;;;8.34;74.62;100224.00;5095032;28;20048;-62
2021/10/18 03:14:53;;;;;;;17.55;9.13;;;;;;;8.23;74.70;100227.16;5096534;28;20046;-62
2021/10/18 03:17:25;;;;;;;19.80;9.50;;;;;;;8.19;74.35;100226.22;5097162;28;20488;-62
2021/10/18 03:19:57;;;;;;;16.20;8.88;;;;;;;8.17;75.10;100222.81;5096868;28;20093;-62
2021/10/18 03:22:28;;;;;;;18.55;9.15;;;;;;;8.08;74.67;100205.72;5096866;28;20037;-62
2021/10/18 03:25:05;;;;;;;16.92;8.43;;;;;;;8.23;74.32;100217.00;5096589;28;20052;-62
2021/10/18 03:27:34;;;;;;;15.82;8.88;;;;;;;8.13;75.15;100215.13;5096482;28;20055;-62
2021/10/18 03:30:10;;;;;;;16.50;7.78;;;;;;;8.15;74.91;100224.47;5096332;28;20135;-62
2021/10/18 03:32:40;;;;;;;15.43;7.65;;;;;;;8.01;74.98;100225.94;5096580;28;20421;-62
2021/10/18 03:35:12;;;;;;;15.10;7.60;;;;;;;7.86;74.73;100225.63;5096476;28;20093;-62
2021/10/18 03:37:43;;;;;;;12.98;7.45;;;;;;;7.84;75.11;100222.22;5096217;28;20058;-62
2021/10/18 03:40:16;;;;;;;15.77;7.75;;;;;;;7.64;74.97;100221.81;5096533;28;20047;-62
2021/10/18 03:42:45;;;;;;;12.38;7.70;;;;;;;7.51;75.01;100219.84;5096500;28;20058;-62
2021/10/18 03:45:18;;;;;;;13.40;7.43;;;;;;;7.50;75.67;100220.69;5096062;28;20097;-62
2021/10/18 03:47:48;;;;;;;11.85;7.57;;;;;;;7.49;75.67;100218.97;5096574;28;20501;-62
2021/10/18 03:50:20;;;;;;;15.73;8.07;;;;;;;7.33;75.37;100227.09;5096318;28;20119;-62
2021/10/18 03:52:54;;;;;;;14.13;8.40;;;;;;;7.23;75.80;100230.28;5096019;28;20039;-62
2021/10/18 03:55:27;;;;;;;15.65;8.48;;;;;;;7.22;75.49;100233.66;5096119;28;20052;-62
2021/10/18 03:57:59;;;;;;;17.27;8.13;;;;;;;7.45;75.92;100232.44;5095225;28;20481;-62
2021/10/18 04:00:34;;;;;;;14.85;8.25;;;;;;;7.50;75.90;100237.59;5096132;28;20488;-62
2021/10/18 04:03:06;;;;;;;15.52;8.27;;;;;;;7.39;75.70;100233.16;5096106;28;20397;-62
2021/10/18 04:05:36;;;;;;;17.42;9.80;;;;;;;7.22;75.87;100241.28;5095725;28;20044;-62
2021/10/18 04:08:07;;;;;;;16.45;9.00;;;;;;;7.37;76.19;100239.03;5095683;28;20048;-62
2021/10/18 04:10:40;;;;;;;14.10;9.02;;;;;;;7.29;76.59;100240.56;5095976;28;20475;-62
2021/10/18 04:13:12;;;;;;;17.40;8.82;;;;;;;7.27;76.28;100252.38;5095932;28;20044;-62
2021/10/18 04:15:45;;;;;;;16.70;9.57;;;;;;;7.22;76.74;100253.97;5095858;28;20059;-62
2021/10/18 04:18:18;;;;;;;18.55;8.95;;;;;;;7.19;76.50;100253.88;5095361;28;20048;-62
2021/10/18 04:20:51;;;;;;;24.00;9.57;;;;;;;7.07;76.40;100257.00;5095408;28;20044;-62
2021/10/18 04:23:25;;;;;;;18.25;8.85;;;;;;;6.81;76.76;100245.41;5095675;28;20040;-61
2021/10/18 04:25:57;;;;;;;16.20;9.15;;;;;;;6.78;76.67;100267.31;5095325;28;20127;-62
2021/10/18 04:28:27;;;;;;;18.50;8.75;;;;;;;6.73;76.86;100283.28;5095202;28;20040;-62
2021/10/18 04:30:56;;;;;;;15.27;9.25;;;;;;;6.68;76.84;100274.69;5095199;28;20048;-62
2021/10/18 04:33:29;;;;;;;18.13;9.18;;;;;;;6.58;76.67;100275.28;5095382;28;20170;-62
2021/10/18 04:36:01;;;;;;;18.13;9.75;;;;;;;6.58;76.85;100275.28;5095122;28;20043;-62
2021/10/18 04:38:35;;;;;;;17.35;9.57;;;;;;;6.54;77.11;100276.03;5095008;28;20052;-62
2021/10/18 04:41:07;;;;;;;17.17;9.65;;;;;;;6.53;77.34;100274.31;5095284;28;20374;-62
2021/10/18 04:43:40;;;;;;;17.35;9.57;;;;;;;6.44;77.05;100274.09;5095258;28;20428;-62
2021/10/18 04:46:12;;;;;;;19.30;9.30;;;;;;;6.43;76.95;100263.94;5094913;28;20040;-62
2021/10/18 04:48:42;;;;;;;16.45;9.85;;;;;;;6.48;77.34;100269.94;5094852;28;20577;-62
2021/10/18 04:51:15;;;;;;;18.92;9.48;;;;;;;6.47;76.90;100274.19;5095060;28;20459;-61
2021/10/18 04:53:51;;;;;;;18.13;9.63;;;;;;;6.28;77.62;100277.06;5095033;28;20044;-62
2021/10/18 04:56:24;;;;;;;17.95;9.43;;;;;;;6.21;77.49;100275.19;5094738;28;20054;-62
2021/10/18 04:58:57;;;;;;;19.17;9.40;;;;;;;6.32;77.91;100281.38;5094004;28;20067;-62
2021/10/18 05:01:30;;;;;;;17.30;8.68;;;;;;;6.35;77.97;100294.16;5094644;28;20097;-62
2021/10/18 05:04:03;;;;;;;18.50;9.43;;;;;;;6.05;77.74;100288.25;5095154;28;20374;-62
2021/10/18 05:06:35;;;;;;;19.40;10.27;;;;;;;5.98;78.35;100292.31;5094921;28;20109;-62
2021/10/18 05:09:09;;;;;;;18.13;10.15;;;;;;;5.96;78.44;100300.69;5094924;28;20143;-62
2021/10/18 05:11:38;;;;;;;26.75;10.60;;;;;;;5.98;78.37;100306.63;5094652;28;20074;-62
2021/10/18 05:14:12;;;;;;;20.23;11.90;;;;;;;5.98;78.18;100307.50;5094579;28;20032;-62
2021/10/18 05:16:44;;;;;;;23.88;10.85;;;;;;;5.97;78.37;100310.00;5094463;28;20493;-62
2021/10/18 05:19:16;;;;;;;18.25;9.98;;;;;;;6.01;79.02;100301.66;5094215;28;20048;-61
2021/10/18 05:21:48;;;;;;;21.58;10.63;;;;;;;6.20;78.81;100308.94;5094619;28;20477;-62
2021/10/18 05:24:22;;;;;;;21.52;10.57;;;;;;;6.11;78.39;100310.38;5094179;28;20055;-62
2021/10/18 05:26:54;;;;;;;25.00;12.13;;;;;;;6.19;78.58;100321.59;5094544;28;20044;-61
2021/10/18 05:29:27;;;;;;;19.40;11.05;;;;;;;6.31;78.75;100326.97;5094133;28;20070;-61
2021/10/18 05:32:00;;;;;;;18.77;10.35;;;;;;;6.29;78.08;100334.53;5094293;28;20063;-61
2021/10/18 05:34:32;;;;;;;22.15;11.25;;;;;;;6.18;78.17;100333.38;5094038;28;20050;-61
2021/10/18 05:37:05;;;;;;;25.08;11.63;;;;;;;6.17;78.09;100348.56;5094040;28;20056;-61
2021/10/18 05:39:39;;;;;;;20.50;12.20;;;;;;;6.14;78.32;100356.94;5093944;28;20044;-62
2021/10/18 05:42:11;;;;;;;24.58;13.43;;;;;;;6.05;78.41;100359.19;5094197;28;20090;-62
2021/10/18 05:44:44;;;;;;;34.20;16.08;;;;;;;6.13;78.17;100367.88;5093854;28;20079;-62
2021/10/18 05:47:17;;;;;;;26.17;14.02;;;;;;;6.23;78.25;100369.88;5093811;28;20051;-62
2021/10/18 05:49:49;;;;;;;26.00;13.48;;;;;;;6.22;78.44;100369.78;5094267;28;20568;-62
2021/10/18 05:52:22;;;;;;;28.48;15.30;;;;;;;6.26;78.17;100375.03;5093725;28;20048;-62
2021/10/18 05:54:53;;;;;;;28.05;13.85;;;;;;;6.35;78.40;100375.25;5093743;28;20047;-62
2021/10/18 05:57:26;;;;;;;25.63;12.73;;;;;;;6.51;78.46;100377.38;5092834;28;20055;-62
2021/10/18 05:59:55;;;;;;;17.52;10.07;;;;;;;6.49;78.77;100343.53;5093660;28;20059;-62
2021/10/18 06:02:27;;;;;;;;;;;;;;;6.81;78.61;100379.00;5094626;28;20063;-62
2021/10/18 06:04:57;;;;;;;27.95;11.38;;;;;;;6.87;78.77;100382.53;5093597;28;20361;-62
2021/10/18 06:07:29;;;;;;;19.58;10.57;;;;;;;6.91;78.42;100379.25;5093536;28;20040;-62
2021/10/18 06:09:59;;;;;;;23.00;10.95;;;;;;;6.64;78.73;100354.06;5093547;28;20048;-62
2021/10/18 06:12:32;;;;;;;20.88;10.30;;;;;;;6.84;79.00;100386.69;5093518;28;20044;-62
2021/10/18 06:15:05;;;;;;;17.15;9.70;;;;;;;6.87;79.13;100396.91;5093762;28;20064;-62
2021/10/18 06:17:37;;;;;;;19.75;10.00;;;;;;;6.94;79.16;100393.69;5094168;28;20055;-63
2021/10/18 06:20:08;;;;;;;14.50;8.15;;;;;;;6.88;79.27;100393.56;5093420;28;20054;-62
2021/10/18 06:22:40;;;;;;;14.88;8.50;;;;;;;6.93;78.99;100400.47;5093533;28;20161;-62
2021/10/18 06:25:14;;;;;;;13.98;8.45;;;;;;;6.88;78.56;100403.72;5093670;28;20040;-63
2021/10/18 06:27:44;;;;;;;18.02;9.32;;;;;;;7.10;78.99;100416.13;5093726;28;20052;-62
2021/10/18 06:30:16;;;;;;;15.82;9.02;;;;;;;7.15;78.70;100417.94;5093103;28;20142;-62
2021/10/18 06:32:46;;;;;;;20.33;10.00;;;;;;;7.24;78.37;100415.66;5090011;28;20052;-63
2021/10/18 06:35:15;;;;;;;18.05;9.82;;;;;;;7.32;78.30;100419.22;5093536;28;20508;-62
2021/10/18 06:37:44;;;;;;;13.95;7.55;;;;;;;7.44;78.48;100413.56;5075757;28;20380;-62
2021/10/18 06:40:16;;;;;;;19.35;9.70;;;;;;;7.60;78.13;100424.94;5093158;28;20135;-62
2021/10/18 06:42:45;;;;;;;18.40;9.95;;;;;;;7.73;78.27;100420.16;5093222;28;20131;-62
2021/10/18 06:45:17;;;;;;;19.42;10.20;;;;;;;7.80;77.69;100419.47;5093151;28;20135;-62
2021/10/18 06:47:47;;;;;;;23.58;10.50;;;;;;;7.89;77.74;100429.84;5096095;28;20127;-62
2021/10/18 06:50:22;;;;;;;18.42;10.80;;;;;;;7.98;77.08;100430.06;5097360;28;20131;-62
2021/10/18 06:52:51;;;;;;;19.02;10.00;;;;;;;7.99;77.38;100426.66;5097421;28;20032;-62
2021/10/18 06:55:27;;;;;;;18.70;9.98;;;;;;;8.20;76.88;100433.03;5097253;28;20044;-62
2021/10/18 06:57:57;;;;;;;17.90;9.30;;;;;;;8.33;76.91;100437.56;5096216;28;20048;-62
2021/10/18 07:00:26;;;;;;;20.33;9.50;;;;;;;8.47;77.08;100426.03;5097237;28;20044;-62
2021/10/18 07:02:56;;;;;;;13.57;8.23;;;;;;;8.65;76.37;100421.25;5096749;28;20040;-62
2021/10/18 07:05:25;;;;;;;13.55;8.27;;;;;;;8.65;76.00;100437.41;5097157;28;20496;-62
2021/10/18 07:07:55;;;;;;;18.42;9.23;;;;;;;8.74;75.02;100444.34;5096740;28;20080;-62
2021/10/18 07:10:29;;;;;;;15.73;7.85;;;;;;;8.86;74.79;100436.94;5096732;28;20048;-62
2021/10/18 07:12:58;;;;;;;16.10;8.30;;;;;;;8.95;74.76;100441.34;5096867;28;20131;-62
2021/10/18 07:15:29;;;;;;;14.23;7.95;;;;;;;8.94;74.70;100414.16;5097235;28;20155;-62
2021/10/18 07:17:59;;;;;;;16.27;9.30;;;;;;;9.20;74.44;100441.78;5096904;28;20505;-62
2021/10/18 07:20:28;;;;;;;14.88;8.32;;;;;;;9.16;74.31;100445.13;5096518;28;20051;-62
2021/10/18 07:23:00;;;;;;;14.77;8.15;;;;;;;9.36;73.25;100445.44;5096446;28;20060;-62
2021/10/18 07:25:31;;;;;;;18.42;9.40;;;;;;;9.39;73.88;100448.91;5084797;28;20037;-63
2021/10/18 07:28:01;;;;;;;14.25;8.15;;;;;;;9.40;73.16;100455.72;5076408;28;20048;-63
2021/10/18 07:30:30;;;;;;;10.48;6.38;;;;;;;9.11;73.04;100439.09;5084314;28;20039;-63
2021/10/18 07:32:59;;;;;;;;;;;;;;;9.30;73.56;100466.59;5078827;28;20040;-63
2021/10/18 07:35:31;;;;;;;16.00;8.10;;;;;;;9.38;73.19;100464.19;5096068;28;20353;-63
2021/10/18 07:38:03;;;;;;;14.43;8.15;;;;;;;9.26;72.99;100459.69;5096233;28;20074;-62
2021/10/18 07:40:34;;;;;;;13.85;8.57;;;;;;;9.26;73.43;100469.91;5084825;28;20040;-63
2021/10/18 07:43:03;;;;;;;15.55;8.43;;;;;;;9.42;73.86;100466.78;5096274;28;20446;-63
2021/10/18 07:45:32;;;;;;;14.65;8.30;;;;;;;9.55;73.20;100467.00;5096041;28;20461;-63
2021/10/18 07:48:05;;;;;;;13.07;8.15;;;;;;;9.36;72.59;100440.34;5096623;28;20474;-62
2021/10/18 07:50:35;;;;;;;16.17;9.75;;;;;;;9.49;72.82;100459.22;5096191;28;20138;-63
2021/10/18 07:53:04;;;;;;;19.15;9.55;;;;;;;9.67;73.02;100474.84;5095896;28;20251;-62
2021/10/18 07:55:37;;;;;;;16.88;8.93;;;;;;;9.64;72.25;100474.78;5095782;28;20131;-62
2021/10/18 07:58:24;;;;;;;17.65;9.70;;;;;;;9.60;72.69;100480.66;5094529;28;20106;-62
2021/10/18 08:00:56;;;;;;;19.40;9.18;;;;;;;9.68;73.05;100481.63;5096098;28;20040;-62
2021/10/18 08:03:29;;;;;;;17.45;9.55;;;;;;;9.77;72.76;100479.22;5095646;28;20071;-62
2021/10/18 08:06:01;;;;;;;15.68;8.90;;;;;;;9.94;72.32;100480.31;5096000;28;20052;-62
2021/10/18 08:08:44;;;;;;;17.35;9.02;;;;;;;10.02;72.43;100486.41;5095779;28;20439;-62
2021/10/18 08:11:14;;;;;;;14.27;8.18;;;;;;;9.92;72.51;100484.56;5095610;28;20139;-62
2021/10/18 08:13:44;;;;;;;15.68;8.15;;;;;;;9.98;72.46;100484.66;5095109;28;20044;-62
2021/10/18 08:16:13;;;;;;;13.90;7.43;;;;;;;10.12;72.50;100485.75;5095446;28;20040;-62
2021/10/18 08:18:43;;;;;;;14.38;7.47;;;;;;;10.00;71.88;100490.63;5095030;28;20040;-62
2021/10/18 08:21:14;;;;;;;13.43;7.45;;;;;;;10.04;72.05;100492.38;5095036;28;20126;-62
2021/10/18 08:23:43;;;;;;;14.20;7.55;;;;;;;9.96;72.14;100502.47;5095979;28;20044;-62
2021/10/18 08:26:12;;;;;;;13.02;7.07;;;;;;;9.92;71.78;100498.16;5095095;28;20040;-62
2021/10/18 08:28:43;;;;;;;13.98;7.32;;;;;;;9.97;71.90;100494.00;5095448;28;20040;-62
2021/10/18 08:31:17;;;;;;;14.63;8.05;;;;;;;10.09;71.75;100503.50;5095236;28;20481;-62
2021/10/18 08:33:46;;;;;;;13.63;7.43;;;;;;;10.15;71.70;100502.78;5094971;28;20048;-62
2021/10/18 08:36:16;;;;;;;12.80;7.45;;;;;;;10.15;71.65;100500.22;5095390;28;20040;-62
2021/10/18 08:38:48;;;;;;;12.02;6.43;;;;;;;10.21;71.11;100492.66;5095272;28;20427;-62
2021/10/18 08:41:31;;;;;;;12.75;7.63;;;;;;;10.41;70.56;100507.41;5094973;28;20105;-62
2021/10/18 08:46:48;;;;;;;12.63;7.43;;;;;;;10.58;70.74;100503.34;5094809;28;20048;-62
2021/10/18 08:49:18;;;;;;;13.95;7.25;;;;;;;10.49;70.95;100479.41;5095027;28;20536;-63
2021/10/18 08:51:50;;;;;;;10.68;7.00;;;;;;;10.69;70.11;100514.56;5094952;28;20512;-62
2021/10/18 08:54:20;;;;;;;13.00;7.35;;;;;;;10.81;69.98;100508.75;5094680;28;20131;-62
2021/10/18 08:57:00;;;;;;;14.32;7.13;;;;;;;10.86;69.30;100508.78;5095059;28;20079;-62
2021/10/18 08:59:34;;;;;;;12.90;7.45;;;;;;;10.81;69.54;100510.44;5094524;28;20056;-62
2021/10/18 09:02:07;;;;;;;13.98;7.30;;;;;;;10.73;70.05;100495.88;5094655;28;20056;-62
2021/10/18 09:04:39;;;;;;;15.38;8.45;;;;;;;10.93;70.07;100508.00;5094866;28;20052;-63
2021/10/18 09:07:25;;;;;;;12.85;6.75;;;;;;;10.88;69.20;100484.13;5094512;28;20101;-63
2021/10/18 09:09:55;;;;;;;11.95;7.07;;;;;;;11.22;68.61;100507.50;5093821;28;20044;-62
2021/10/18 09:12:26;;;;;;;16.05;7.50;;;;;;;11.40;68.68;100506.78;5094226;28;20128;-62
2021/10/18 09:15:18;;;;;;;15.57;7.63;;;;;;;11.53;68.38;100498.41;5094120;28;20473;-62
2021/10/18 09:17:53;;;;;;;11.32;6.82;;;;;;;11.88;68.07;100511.47;5094072;28;20488;-61
2021/10/18 09:20:24;;;;;;;12.85;7.85;;;;;;;11.93;67.73;100486.78;5094041;28;20052;-62
2021/10/18 09:22:55;;;;;;;13.80;7.88;;;;;;;12.10;67.52;100524.44;5094012;28;20131;-62
2021/10/18 09:25:39;;;;;;;15.13;7.22;;;;;;;12.20;67.67;100521.94;5093913;28;20497;-62
2021/10/18 09:28:14;;;;;;;13.38;7.43;;;;;;;12.05;67.24;100492.00;5092005;28;20055;-62
2021/10/18 09:30:46;;;;;;;11.88;6.97;;;;;;;12.26;66.50;100525.38;5094032;28;20136;-62
2021/10/18 09:33:20;;;;;;;11.15;7.25;;;;;;;12.40;66.07;100522.94;5094347;28;20036;-62
2021/10/18 09:35:56;;;;;;;13.82;8.15;;;;;;;12.53;65.54;100524.69;5093987;28;20044;-62
2021/10/18 09:38:26;;;;;;;15.10;8.80;;;;;;;12.22;64.85;100497.19;5093958;28;20063;-63
2021/10/18 09:40:58;;;;;;;18.10;9.00;;;;;;;12.41;65.18;100533.16;5093880;28;20044;-63
2021/10/18 09:43:39;;;;;;;14.88;8.73;;;;;;;12.53;65.74;100534.91;5093860;28;20051;-62
2021/10/18 09:46:15;;;;;;;15.52;8.57;;;;;;;12.58;65.84;100528.97;5093762;28;20058;-62
2021/10/18 10:53:28;;;;;;;7.15;3.28;;;;;;;13.09;58.19;100497.59;5097441;28;20044;-62
2021/10/18 10:55:59;;;;;;;4.88;2.88;;;;;;;13.42;58.06;100497.66;5096677;28;20044;-62
2021/10/18 10:58:47;;;;;;;6.15;3.10;;;;;;;13.68;57.54;100494.22;5065970;28;20556;-62
2021/10/18 11:01:41;;;;;;;4.68;2.70;;;;;;;14.06;56.46;100505.31;5056921;28;20052;-62
2021/10/18 11:04:49;;;;;;;7.25;3.38;;;;;;;14.53;55.68;100506.09;5057082;28;20043;-61
2021/10/18 11:07:56;;;;;;;5.72;2.78;;;;;;;14.41;56.09;100495.84;5056992;28;20045;-61
2021/10/18 11:10:28;;;;;;;5.65;2.80;;;;;;;14.29;55.93;100490.72;5039218;28;20136;-62
2021/10/18 11:13:07;;;;;;;5.97;3.28;;;;;;;14.12;56.39;100482.22;5057008;28;20140;-62
2021/10/18 11:15:37;;;;;;;5.70;2.78;;;;;;;14.02;56.79;100493.34;5056631;28;20041;-62
2021/10/18 11:18:09;;;;;;;5.88;2.60;;;;;;;14.16;56.86;100501.88;5056328;28;20061;-62
2021/10/18 11:20:39;;;;;;;7.32;3.25;;;;;;;14.42;56.02;100477.00;5056443;28;20059;-62
2021/10/18 11:23:16;;;;;;;6.65;3.00;;;;;;;14.97;56.15;100497.34;5056549;28;20486;-62
2021/10/18 11:25:47;;;;;;;6.30;2.72;;;;;;;15.31;55.75;100496.25;5056074;28;20056;-62
2021/10/18 11:28:17;;;;;;;7.32;2.67;;;;;;;15.23;54.71;100500.59;5056139;28;20518;-62
2021/10/18 11:30:49;;;;;;;5.15;2.65;;;;;;;15.12;55.07;100499.78;5056265;28;20564;-62
2021/10/18 11:33:28;;;;;;;4.45;2.28;;;;;;;14.96;55.59;100482.75;5055723;28;20094;-62
2021/10/18 11:36:18;;;;;;;5.85;2.50;;;;;;;14.91;55.18;100492.22;5055915;28;20053;-61
2021/10/18 11:38:48;;;;;;;4.70;2.40;;;;;;;14.88;55.71;100490.50;5055965;28;20033;-62
2021/10/18 11:41:19;;;;;;;7.40;2.90;;;;;;;14.78;55.84;100497.41;5055682;28;20487;-61
2021/10/18 11:43:49;;;;;;;5.63;2.45;;;;;;;14.52;55.74;100499.22;5055672;28;20045;-61
2021/10/18 11:46:21;;;;;;;5.60;2.40;;;;;;;14.40;56.09;100489.00;5055668;28;20045;-61
2021/10/18 11:49:08;;;;;;;4.55;2.53;;;;;;;14.28;55.93;100478.72;5056043;28;20474;-61
2021/10/18 11:51:38;;;;;;;7.88;2.85;;;;;;;14.36;56.49;100489.03;5055701;28;20049;-61
2021/10/18 11:54:10;;;;;;;7.32;2.78;;;;;;;14.48;56.72;100486.41;5055706;28;20110;-61
2021/10/18 11:56:42;;;;;;;4.80;2.60;;;;;;;14.65;56.77;100480.34;5055408;28;20071;-61
2021/10/18 11:59:15;;;;;;;5.40;2.45;;;;;;;14.73;56.18;100472.63;5085466;28;20052;-61
2021/10/18 12:01:45;;;;;;;5.93;2.80;;;;;;;14.82;55.62;100457.13;5095749;28;20052;-61
2021/10/18 12:04:14;;;;;;;5.28;2.47;;;;;;;14.95;55.85;100447.66;5077899;28;20043;-61
2021/10/18 12:06:47;;;;;;;6.88;2.60;;;;;;;15.55;55.56;100472.94;5095743;28;20038;-61
2021/10/18 12:09:27;;;;;;;7.03;2.70;;;;;;;15.60;54.70;100481.47;5095824;28;20074;-63
2021/10/18 12:12:14;;;;;;;;;;;;;;;15.53;54.22;100484.97;5095993;28;20485;-61
2021/10/18 12:14:59;;;;;;;5.40;2.40;;;;;;;15.56;54.29;100473.78;5095585;28;20366;-61
2021/10/18 12:17:29;;;;;;;4.40;2.38;;;;;;;15.27;54.27;100451.69;5095750;28;20421;-61
2021/10/18 12:20:00;;;;;;;6.05;2.40;;;;;;;15.35;54.20;100474.78;5095838;28;20052;-62
2021/10/18 12:22:29;;;;;;;8.15;2.60;;;;;;;15.32;54.78;100474.81;5095255;28;20051;-62
2021/10/18 12:25:03;;;;;;;4.47;2.45;;;;;;;15.13;55.12;100478.38;5095372;28;20050;-61
2021/10/18 12:27:35;;;;;;;5.97;2.78;;;;;;;15.06;55.35;100476.72;5095223;28;20071;-61
2021/10/18 12:30:06;;;;;;;5.93;2.95;;;;;;;15.01;55.43;100478.44;5095271;28;20055;-61
2021/10/18 12:32:39;;;;;;;6.97;3.00;;;;;;;14.99;55.93;100480.19;5095170;28;20044;-61
2021/10/18 12:35:09;;;;;;;7.38;2.80;;;;;;;14.92;56.14;100475.94;5095023;28;20052;-61
2021/10/18 12:37:41;;;;;;;5.45;2.80;;;;;;;14.94;56.09;100476.78;5095486;28;20440;-61
2021/10/18 12:40:11;;;;;;;4.18;2.58;;;;;;;14.88;56.27;100479.38;5095294;28;20462;-62
2021/10/18 12:42:47;;;;;;;6.97;2.80;;;;;;;14.91;56.62;100481.94;5094924;28;20082;-61
2021/10/18 12:45:19;;;;;;;7.85;3.13;;;;;;;14.88;56.38;100485.38;5093605;28;20128;-62
2021/10/18 12:47:51;;;;;;;4.60;3.10;;;;;;;14.73;56.27;100488.88;5094706;28;20052;-63
2021/10/18 12:50:22;;;;;;;6.32;3.38;;;;;;;14.59;56.54;100495.78;5094718;28;20071;-62
2021/10/18 12:52:54;;;;;;;6.18;3.72;;;;;;;14.52;56.60;100491.53;5094632;28;20585;-63
2021/10/18 12:55:27;;;;;;;6.95;3.90;;;;;;;14.56;57.01;100490.69;5094490;28;20119;-62
2021/10/18 12:57:58;;;;;;;7.53;3.22;;;;;;;14.50;56.76;100464.13;5085008;28;20058;-62